sensor_id;sensor_type;location;lat;lon;timestamp;P1;durP1;ratioP1;P2;durP2;ratioP2
4650;SDS011;2338;49.602;8.722;2022-12-11T00:00:37;29.45;;;22.42;;
4650;SDS011;2338;49.602;8.722;2022-12-11T00:03:24;30.00;;;21.85;;
4650;SDS011;2338;49.602;8.722;2022-12-11T00:06:10;30.77;;;23.23;;
4650;SDS011;2338;49.602;8.722;2022-12-11T00:08:57;30.98;;;24.60;;
4650;SDS011;2338;49.602;8.722;2022-12-11T00:11:42;27.85;;;21.38;;
4650;SDS011;2338;49.602;8.722;2022-12-11T00:14:28;33.50;;;23.83;;
4650;SDS011;2338;49.602;8.722;2022-12-11T00:17:14;29.88;;;21.85;;
4650;SDS011;2338;49.602;8.722;2022-12-11T00:20:01;30.80;;;22.75;;
4650;SDS011;2338;49.602;8.722;2022-12-11T00:22:47;30.92;;;24.40;;
4650;SDS011;2338;49.602;8.722;2022-12-11T00:25:33;31.08;;;22.58;;
4650;SDS011;2338;49.602;8.722;2022-12-11T00:28:18;31.65;;;24.02;;
4650;SDS011;2338;49.602;8.722;2022-12-11T00:31:04;32.45;;;24.75;;
4650;SDS011;2338;49.602;8.722;2022-12-11T00:33:50;30.48;;;23.63;;
4650;SDS011;2338;49.602;8.722;2022-12-11T00:36:37;32.90;;;21.95;;
4650;SDS011;2338;49.602;8.722;2022-12-11T00:39:23;28.95;;;23.48;;
4650;SDS011;2338;49.602;8.722;2022-12-11T00:42:09;29.25;;;21.67;;
4650;SDS011;2338;49.602;8.722;2022-12-11T00:44:55;32.25;;;22.80;;
4650;SDS011;2338;49.602;8.722;2022-12-11T00:47:40;31.63;;;24.38;;
4650;SDS011;2338;49.602;8.722;2022-12-11T00:50:26;27.27;;;20.70;;
4650;SDS011;2338;49.602;8.722;2022-12-11T00:53:13;30.13;;;22.02;;
4650;SDS011;2338;49.602;8.722;2022-12-11T00:55:59;30.40;;;21.60;;
4650;SDS011;2338;49.602;8.722;2022-12-11T00:58:44;28.08;;;22.23;;
4650;SDS011;2338;49.602;8.722;2022-12-11T01:01:30;30.58;;;21.85;;
4650;SDS011;2338;49.602;8.722;2022-12-11T01:04:16;28.27;;;21.83;;
4650;SDS011;2338;49.602;8.722;2022-12-11T01:07:01;31.65;;;24.05;;
4650;SDS011;2338;49.602;8.722;2022-12-11T01:09:48;29.77;;;21.38;;
4650;SDS011;2338;49.602;8.722;2022-12-11T01:12:52;23.73;;;19.23;;
4650;SDS011;2338;49.602;8.722;2022-12-11T01:15:40;28.73;;;20.63;;
4650;SDS011;2338;49.602;8.722;2022-12-11T01:18:27;29.88;;;21.20;;
4650;SDS011;2338;49.602;8.722;2022-12-11T01:21:12;30.30;;;21.67;;
4650;SDS011;2338;49.602;8.722;2022-12-11T01:23:58;28.95;;;20.90;;
4650;SDS011;2338;49.602;8.722;2022-12-11T01:26:45;28.52;;;22.38;;
4650;SDS011;2338;49.602;8.722;2022-12-11T01:29:31;30.30;;;21.33;;
4650;SDS011;2338;49.602;8.722;2022-12-11T01:32:16;29.50;;;22.60;;
4650;SDS011;2338;49.602;8.722;2022-12-11T01:35:02;32.97;;;21.58;;
4650;SDS011;2338;49.602;8.722;2022-12-11T01:37:48;35.97;;;24.98;;
4650;SDS011;2338;49.602;8.722;2022-12-11T01:40:34;31.65;;;23.45;;
4650;SDS011;2338;49.602;8.722;2022-12-11T01:43:20;31.55;;;20.55;;
4650;SDS011;2338;49.602;8.722;2022-12-11T01:46:06;34.75;;;24.10;;
4650;SDS011;2338;49.602;8.722;2022-12-11T01:48:51;35.05;;;26.20;;
4650;SDS011;2338;49.602;8.722;2022-12-11T01:51:39;35.13;;;24.98;;
4650;SDS011;2338;49.602;8.722;2022-12-11T01:54:28;41.20;;;26.63;;
4650;SDS011;2338;49.602;8.722;2022-12-11T01:57:14;31.92;;;24.95;;
4650;SDS011;2338;49.602;8.722;2022-12-11T02:00:02;37.70;;;28.27;;
4650;SDS011;2338;49.602;8.722;2022-12-11T02:02:48;39.05;;;24.83;;
4650;SDS011;2338;49.602;8.722;2022-12-11T02:05:34;42.78;;;25.90;;
4650;SDS011;2338;49.602;8.722;2022-12-11T02:08:20;39.40;;;27.92;;
4650;SDS011;2338;49.602;8.722;2022-12-11T02:11:07;37.15;;;26.52;;
4650;SDS011;2338;49.602;8.722;2022-12-11T02:14:00;36.60;;;24.10;;
4650;SDS011;2338;49.602;8.722;2022-12-11T02:16:52;38.53;;;24.05;;
4650;SDS011;2338;49.602;8.722;2022-12-11T02:19:51;35.95;;;25.10;;
4650;SDS011;2338;49.602;8.722;2022-12-11T02:22:46;38.42;;;27.00;;
4650;SDS011;2338;49.602;8.722;2022-12-11T02:25:45;36.85;;;24.77;;
4650;SDS011;2338;49.602;8.722;2022-12-11T02:28:41;34.92;;;27.40;;
4650;SDS011;2338;49.602;8.722;2022-12-11T02:31:31;38.40;;;25.90;;
4650;SDS011;2338;49.602;8.722;2022-12-11T02:34:22;35.78;;;25.65;;
4650;SDS011;2338;49.602;8.722;2022-12-11T02:37:15;39.72;;;27.13;;
4650;SDS011;2338;49.602;8.722;2022-12-11T02:40:06;35.58;;;24.67;;
4650;SDS011;2338;49.602;8.722;2022-12-11T02:42:54;36.38;;;25.85;;
4650;SDS011;2338;49.602;8.722;2022-12-11T02:45:45;41.90;;;26.02;;
4650;SDS011;2338;49.602;8.722;2022-12-11T02:48:32;36.45;;;27.23;;
4650;SDS011;2338;49.602;8.722;2022-12-11T02:51:20;33.47;;;23.55;;
4650;SDS011;2338;49.602;8.722;2022-12-11T02:54:10;36.13;;;24.33;;
4650;SDS011;2338;49.602;8.722;2022-12-11T02:57:01;42.42;;;26.10;;
4650;SDS011;2338;49.602;8.722;2022-12-11T02:59:50;38.58;;;27.92;;
4650;SDS011;2338;49.602;8.722;2022-12-11T03:02:37;39.13;;;26.33;;
4650;SDS011;2338;49.602;8.722;2022-12-11T03:05:25;39.38;;;25.90;;
4650;SDS011;2338;49.602;8.722;2022-12-11T03:08:11;36.10;;;24.02;;
4650;SDS011;2338;49.602;8.722;2022-12-11T03:11:01;36.72;;;26.00;;
4650;SDS011;2338;49.602;8.722;2022-12-11T03:13:46;34.30;;;23.52;;
4650;SDS011;2338;49.602;8.722;2022-12-11T03:16:33;37.15;;;24.55;;
4650;SDS011;2338;49.602;8.722;2022-12-11T03:19:23;34.90;;;23.63;;
4650;SDS011;2338;49.602;8.722;2022-12-11T03:22:15;36.90;;;25.73;;
4650;SDS011;2338;49.602;8.722;2022-12-11T03:25:06;38.45;;;25.75;;
4650;SDS011;2338;49.602;8.722;2022-12-11T03:27:55;35.40;;;24.35;;
4650;SDS011;2338;49.602;8.722;2022-12-11T03:30:42;36.38;;;23.33;;
4650;SDS011;2338;49.602;8.722;2022-12-11T03:33:30;33.65;;;24.63;;
4650;SDS011;2338;49.602;8.722;2022-12-11T03:36:21;35.65;;;26.13;;
4650;SDS011;2338;49.602;8.722;2022-12-11T03:39:11;43.53;;;28.25;;
4650;SDS011;2338;49.602;8.722;2022-12-11T03:42:02;39.97;;;27.70;;
4650;SDS011;2338;49.602;8.722;2022-12-11T03:44:50;45.72;;;30.10;;
4650;SDS011;2338;49.602;8.722;2022-12-11T03:47:38;46.08;;;30.65;;
4650;SDS011;2338;49.602;8.722;2022-12-11T03:50:27;51.05;;;30.67;;
4650;SDS011;2338;49.602;8.722;2022-12-11T03:53:16;41.05;;;30.15;;
4650;SDS011;2338;49.602;8.722;2022-12-11T03:56:04;41.13;;;27.67;;
4650;SDS011;2338;49.602;8.722;2022-12-11T03:58:52;49.90;;;31.35;;
4650;SDS011;2338;49.602;8.722;2022-12-11T04:01:38;51.65;;;32.13;;
4650;SDS011;2338;49.602;8.722;2022-12-11T04:04:23;53.17;;;33.30;;
4650;SDS011;2338;49.602;8.722;2022-12-11T04:07:09;46.58;;;32.45;;
4650;SDS011;2338;49.602;8.722;2022-12-11T04:09:56;44.80;;;30.27;;
4650;SDS011;2338;49.602;8.722;2022-12-11T04:12:41;52.13;;;33.85;;
4650;SDS011;2338;49.602;8.722;2022-12-11T04:15:26;52.65;;;33.65;;
4650;SDS011;2338;49.602;8.722;2022-12-11T04:18:12;49.95;;;32.20;;
4650;SDS011;2338;49.602;8.722;2022-12-11T04:21:15;49.90;;;32.10;;
4650;SDS011;2338;49.602;8.722;2022-12-11T04:24:18;50.60;;;33.78;;
4650;SDS011;2338;49.602;8.722;2022-12-11T04:27:06;46.30;;;33.35;;
4650;SDS011;2338;49.602;8.722;2022-12-11T04:29:52;48.75;;;33.45;;
4650;SDS011;2338;49.602;8.722;2022-12-11T04:32:37;49.30;;;34.80;;
4650;SDS011;2338;49.602;8.722;2022-12-11T04:35:23;51.63;;;31.42;;
4650;SDS011;2338;49.602;8.722;2022-12-11T04:38:09;56.00;;;35.20;;
4650;SDS011;2338;49.602;8.722;2022-12-11T04:40:58;50.05;;;33.40;;
4650;SDS011;2338;49.602;8.722;2022-12-11T04:43:45;48.58;;;34.58;;
4650;SDS011;2338;49.602;8.722;2022-12-11T04:46:30;48.72;;;34.92;;
4650;SDS011;2338;49.602;8.722;2022-12-11T04:49:17;51.88;;;34.15;;
4650;SDS011;2338;49.602;8.722;2022-12-11T04:52:02;50.08;;;33.47;;
4650;SDS011;2338;49.602;8.722;2022-12-11T04:54:48;51.05;;;33.40;;
4650;SDS011;2338;49.602;8.722;2022-12-11T04:57:34;44.28;;;31.17;;
4650;SDS011;2338;49.602;8.722;2022-12-11T05:00:21;53.42;;;34.80;;
4650;SDS011;2338;49.602;8.722;2022-12-11T05:03:07;49.53;;;33.00;;
4650;SDS011;2338;49.602;8.722;2022-12-11T05:05:53;45.03;;;29.10;;
4650;SDS011;2338;49.602;8.722;2022-12-11T05:08:39;46.63;;;31.15;;
4650;SDS011;2338;49.602;8.722;2022-12-11T05:11:26;42.70;;;30.42;;
4650;SDS011;2338;49.602;8.722;2022-12-11T05:14:11;47.72;;;31.20;;
4650;SDS011;2338;49.602;8.722;2022-12-11T05:16:59;45.22;;;30.20;;
4650;SDS011;2338;49.602;8.722;2022-12-11T05:19:45;48.67;;;32.40;;
4650;SDS011;2338;49.602;8.722;2022-12-11T05:22:31;44.00;;;31.35;;
4650;SDS011;2338;49.602;8.722;2022-12-11T05:25:17;48.38;;;31.92;;
4650;SDS011;2338;49.602;8.722;2022-12-11T05:28:02;48.08;;;33.22;;
4650;SDS011;2338;49.602;8.722;2022-12-11T05:30:48;45.75;;;32.65;;
4650;SDS011;2338;49.602;8.722;2022-12-11T05:33:40;46.40;;;32.60;;
4650;SDS011;2338;49.602;8.722;2022-12-11T05:36:26;46.65;;;32.50;;
4650;SDS011;2338;49.602;8.722;2022-12-11T05:39:13;44.95;;;30.80;;
4650;SDS011;2338;49.602;8.722;2022-12-11T05:41:59;43.00;;;29.90;;
4650;SDS011;2338;49.602;8.722;2022-12-11T05:44:44;43.30;;;28.58;;
4650;SDS011;2338;49.602;8.722;2022-12-11T05:47:30;44.10;;;30.30;;
4650;SDS011;2338;49.602;8.722;2022-12-11T05:50:17;44.55;;;29.92;;
4650;SDS011;2338;49.602;8.722;2022-12-11T05:53:02;39.88;;;28.73;;
4650;SDS011;2338;49.602;8.722;2022-12-11T05:55:48;39.70;;;27.52;;
4650;SDS011;2338;49.602;8.722;2022-12-11T05:58:34;44.13;;;29.13;;
4650;SDS011;2338;49.602;8.722;2022-12-11T06:01:20;43.67;;;30.10;;
4650;SDS011;2338;49.602;8.722;2022-12-11T06:04:08;43.33;;;29.02;;
4650;SDS011;2338;49.602;8.722;2022-12-11T06:06:56;46.83;;;30.00;;
4650;SDS011;2338;49.602;8.722;2022-12-11T06:09:41;47.80;;;30.80;;
4650;SDS011;2338;49.602;8.722;2022-12-11T06:12:27;43.03;;;30.58;;
4650;SDS011;2338;49.602;8.722;2022-12-11T06:15:13;46.00;;;31.15;;
4650;SDS011;2338;49.602;8.722;2022-12-11T06:17:59;46.17;;;31.90;;
4650;SDS011;2338;49.602;8.722;2022-12-11T06:20:45;52.55;;;33.28;;
4650;SDS011;2338;49.602;8.722;2022-12-11T06:23:32;55.15;;;32.83;;
4650;SDS011;2338;49.602;8.722;2022-12-11T06:26:18;47.33;;;34.22;;
4650;SDS011;2338;49.602;8.722;2022-12-11T06:29:04;46.78;;;30.20;;
4650;SDS011;2338;49.602;8.722;2022-12-11T06:31:50;46.10;;;31.70;;
4650;SDS011;2338;49.602;8.722;2022-12-11T06:34:35;51.38;;;32.95;;
4650;SDS011;2338;49.602;8.722;2022-12-11T06:37:21;48.25;;;32.70;;
4650;SDS011;2338;49.602;8.722;2022-12-11T06:40:08;43.47;;;30.38;;
4650;SDS011;2338;49.602;8.722;2022-12-11T06:42:55;40.85;;;27.83;;
4650;SDS011;2338;49.602;8.722;2022-12-11T06:45:40;43.00;;;29.63;;
4650;SDS011;2338;49.602;8.722;2022-12-11T06:48:26;47.80;;;32.38;;
4650;SDS011;2338;49.602;8.722;2022-12-11T06:51:13;41.10;;;29.75;;
4650;SDS011;2338;49.602;8.722;2022-12-11T06:54:01;64.28;;;42.72;;
4650;SDS011;2338;49.602;8.722;2022-12-11T06:56:48;50.38;;;31.00;;
4650;SDS011;2338;49.602;8.722;2022-12-11T06:59:33;60.63;;;40.05;;
4650;SDS011;2338;49.602;8.722;2022-12-11T07:02:19;55.70;;;35.92;;
4650;SDS011;2338;49.602;8.722;2022-12-11T07:05:05;54.03;;;36.15;;
4650;SDS011;2338;49.602;8.722;2022-12-11T07:07:51;54.13;;;36.25;;
4650;SDS011;2338;49.602;8.722;2022-12-11T07:10:37;58.22;;;32.85;;
4650;SDS011;2338;49.602;8.722;2022-12-11T07:13:24;51.10;;;33.00;;
4650;SDS011;2338;49.602;8.722;2022-12-11T07:16:10;56.83;;;34.67;;
4650;SDS011;2338;49.602;8.722;2022-12-11T07:18:57;58.08;;;35.50;;
4650;SDS011;2338;49.602;8.722;2022-12-11T07:21:42;52.20;;;31.63;;
4650;SDS011;2338;49.602;8.722;2022-12-11T07:24:28;54.70;;;36.90;;
4650;SDS011;2338;49.602;8.722;2022-12-11T07:27:13;68.63;;;41.17;;
4650;SDS011;2338;49.602;8.722;2022-12-11T07:30:00;53.45;;;35.30;;
4650;SDS011;2338;49.602;8.722;2022-12-11T07:32:46;55.97;;;33.85;;
4650;SDS011;2338;49.602;8.722;2022-12-11T07:35:32;54.80;;;34.20;;
4650;SDS011;2338;49.602;8.722;2022-12-11T07:38:18;54.75;;;35.40;;
4650;SDS011;2338;49.602;8.722;2022-12-11T07:41:05;53.97;;;36.10;;
4650;SDS011;2338;49.602;8.722;2022-12-11T07:43:52;53.70;;;33.25;;
4650;SDS011;2338;49.602;8.722;2022-12-11T07:46:39;51.10;;;32.40;;
4650;SDS011;2338;49.602;8.722;2022-12-11T07:49:25;52.67;;;36.53;;
4650;SDS011;2338;49.602;8.722;2022-12-11T07:52:10;49.10;;;34.33;;
4650;SDS011;2338;49.602;8.722;2022-12-11T07:54:56;51.67;;;33.17;;
4650;SDS011;2338;49.602;8.722;2022-12-11T07:57:41;48.97;;;32.55;;
4650;SDS011;2338;49.602;8.722;2022-12-11T08:00:27;48.45;;;31.58;;
4650;SDS011;2338;49.602;8.722;2022-12-11T08:03:14;51.67;;;32.45;;
4650;SDS011;2338;49.602;8.722;2022-12-11T08:05:59;47.45;;;30.38;;
4650;SDS011;2338;49.602;8.722;2022-12-11T08:08:45;48.53;;;31.27;;
4650;SDS011;2338;49.602;8.722;2022-12-11T08:11:31;51.63;;;31.98;;
4650;SDS011;2338;49.602;8.722;2022-12-11T08:14:17;51.05;;;32.88;;
4650;SDS011;2338;49.602;8.722;2022-12-11T08:17:03;47.83;;;29.73;;
4650;SDS011;2338;49.602;8.722;2022-12-11T08:19:51;50.58;;;32.00;;
4650;SDS011;2338;49.602;8.722;2022-12-11T08:22:36;45.97;;;29.83;;
4650;SDS011;2338;49.602;8.722;2022-12-11T08:25:22;50.67;;;30.88;;
4650;SDS011;2338;49.602;8.722;2022-12-11T08:28:07;43.85;;;29.90;;
4650;SDS011;2338;49.602;8.722;2022-12-11T08:30:53;42.42;;;28.95;;
4650;SDS011;2338;49.602;8.722;2022-12-11T08:33:39;43.20;;;27.88;;
4650;SDS011;2338;49.602;8.722;2022-12-11T08:36:27;48.47;;;30.55;;
4650;SDS011;2338;49.602;8.722;2022-12-11T08:39:12;46.90;;;28.63;;
4650;SDS011;2338;49.602;8.722;2022-12-11T08:41:58;43.97;;;29.98;;
4650;SDS011;2338;49.602;8.722;2022-12-11T08:44:44;40.45;;;26.83;;
4650;SDS011;2338;49.602;8.722;2022-12-11T08:47:33;42.90;;;29.65;;
4650;SDS011;2338;49.602;8.722;2022-12-11T08:50:18;49.42;;;31.95;;
4650;SDS011;2338;49.602;8.722;2022-12-11T08:53:05;46.35;;;30.85;;
4650;SDS011;2338;49.602;8.722;2022-12-11T08:55:50;44.47;;;29.98;;
4650;SDS011;2338;49.602;8.722;2022-12-11T08:58:36;45.95;;;29.40;;
4650;SDS011;2338;49.602;8.722;2022-12-11T09:01:22;42.70;;;29.27;;
4650;SDS011;2338;49.602;8.722;2022-12-11T09:04:09;47.03;;;31.73;;
4650;SDS011;2338;49.602;8.722;2022-12-11T09:06:55;53.47;;;32.05;;
4650;SDS011;2338;49.602;8.722;2022-12-11T09:09:42;55.90;;;36.33;;
4650;SDS011;2338;49.602;8.722;2022-12-11T09:12:31;59.95;;;34.58;;
4650;SDS011;2338;49.602;8.722;2022-12-11T09:15:16;65.10;;;39.88;;
4650;SDS011;2338;49.602;8.722;2022-12-11T09:18:02;59.25;;;39.33;;
4650;SDS011;2338;49.602;8.722;2022-12-11T09:20:49;56.60;;;35.83;;
4650;SDS011;2338;49.602;8.722;2022-12-11T09:23:42;60.75;;;38.88;;
4650;SDS011;2338;49.602;8.722;2022-12-11T09:26:29;63.85;;;38.28;;
4650;SDS011;2338;49.602;8.722;2022-12-11T09:29:15;66.45;;;40.53;;
4650;SDS011;2338;49.602;8.722;2022-12-11T09:32:00;61.63;;;37.35;;
4650;SDS011;2338;49.602;8.722;2022-12-11T09:34:48;61.30;;;37.72;;
4650;SDS011;2338;49.602;8.722;2022-12-11T09:37:34;53.90;;;35.72;;
4650;SDS011;2338;49.602;8.722;2022-12-11T09:40:19;63.28;;;39.13;;
4650;SDS011;2338;49.602;8.722;2022-12-11T09:43:08;56.72;;;34.33;;
4650;SDS011;2338;49.602;8.722;2022-12-11T09:46:03;61.03;;;35.45;;
4650;SDS011;2338;49.602;8.722;2022-12-11T09:48:50;52.90;;;34.55;;
4650;SDS011;2338;49.602;8.722;2022-12-11T09:51:38;54.38;;;33.72;;
4650;SDS011;2338;49.602;8.722;2022-12-11T09:54:27;63.63;;;39.35;;
4650;SDS011;2338;49.602;8.722;2022-12-11T09:57:16;58.25;;;35.67;;
4650;SDS011;2338;49.602;8.722;2022-12-11T10:00:15;67.03;;;37.40;;
4650;SDS011;2338;49.602;8.722;2022-12-11T10:06:36;60.47;;;34.83;;
4650;SDS011;2338;49.602;8.722;2022-12-11T10:09:29;64.22;;;37.05;;
4650;SDS011;2338;49.602;8.722;2022-12-11T10:12:26;63.83;;;36.38;;
4650;SDS011;2338;49.602;8.722;2022-12-11T10:15:28;60.72;;;35.65;;
4650;SDS011;2338;49.602;8.722;2022-12-11T10:18:21;61.35;;;35.75;;
4650;SDS011;2338;49.602;8.722;2022-12-11T10:21:08;65.60;;;36.22;;
4650;SDS011;2338;49.602;8.722;2022-12-11T10:23:57;70.82;;;36.75;;
4650;SDS011;2338;49.602;8.722;2022-12-11T10:26:45;55.85;;;35.17;;
4650;SDS011;2338;49.602;8.722;2022-12-11T10:29:31;62.25;;;34.63;;
4650;SDS011;2338;49.602;8.722;2022-12-11T10:32:21;57.78;;;33.75;;
4650;SDS011;2338;49.602;8.722;2022-12-11T10:35:08;60.70;;;32.97;;
4650;SDS011;2338;49.602;8.722;2022-12-11T10:38:12;65.90;;;36.35;;
4650;SDS011;2338;49.602;8.722;2022-12-11T10:41:01;66.03;;;35.58;;
4650;SDS011;2338;49.602;8.722;2022-12-11T10:43:50;70.63;;;37.47;;
4650;SDS011;2338;49.602;8.722;2022-12-11T10:46:37;64.53;;;34.45;;
4650;SDS011;2338;49.602;8.722;2022-12-11T10:49:25;66.25;;;35.35;;
4650;SDS011;2338;49.602;8.722;2022-12-11T10:52:17;70.00;;;34.20;;
4650;SDS011;2338;49.602;8.722;2022-12-11T10:55:06;63.55;;;34.78;;
4650;SDS011;2338;49.602;8.722;2022-12-11T10:58:02;61.63;;;35.20;;
4650;SDS011;2338;49.602;8.722;2022-12-11T11:00:57;61.13;;;34.15;;
4650;SDS011;2338;49.602;8.722;2022-12-11T11:03:56;61.58;;;34.28;;
4650;SDS011;2338;49.602;8.722;2022-12-11T11:06:47;69.03;;;36.72;;
4650;SDS011;2338;49.602;8.722;2022-12-11T11:09:34;63.40;;;36.40;;
4650;SDS011;2338;49.602;8.722;2022-12-11T11:12:21;64.57;;;35.35;;
4650;SDS011;2338;49.602;8.722;2022-12-11T11:15:10;64.25;;;33.90;;
4650;SDS011;2338;49.602;8.722;2022-12-11T11:18:03;62.92;;;34.17;;
4650;SDS011;2338;49.602;8.722;2022-12-11T11:20:57;55.83;;;32.42;;
4650;SDS011;2338;49.602;8.722;2022-12-11T11:23:46;54.08;;;32.53;;
4650;SDS011;2338;49.602;8.722;2022-12-11T11:26:33;56.33;;;31.25;;
4650;SDS011;2338;49.602;8.722;2022-12-11T11:29:22;55.53;;;31.98;;
4650;SDS011;2338;49.602;8.722;2022-12-11T11:32:14;60.83;;;32.03;;
4650;SDS011;2338;49.602;8.722;2022-12-11T11:35:05;53.25;;;30.33;;
4650;SDS011;2338;49.602;8.722;2022-12-11T11:38:04;56.35;;;33.28;;
4650;SDS011;2338;49.602;8.722;2022-12-11T11:41:08;58.10;;;33.97;;
4650;SDS011;2338;49.602;8.722;2022-12-11T11:44:04;55.22;;;30.80;;
4650;SDS011;2338;49.602;8.722;2022-12-11T11:46:58;55.38;;;30.40;;
4650;SDS011;2338;49.602;8.722;2022-12-11T11:49:49;58.72;;;32.80;;
4650;SDS011;2338;49.602;8.722;2022-12-11T11:52:49;60.17;;;33.75;;
4650;SDS011;2338;49.602;8.722;2022-12-11T11:55:41;62.00;;;34.30;;
4650;SDS011;2338;49.602;8.722;2022-12-11T11:58:42;87.68;;;42.15;;
4650;SDS011;2338;49.602;8.722;2022-12-11T12:01:39;66.65;;;34.55;;
4650;SDS011;2338;49.602;8.722;2022-12-11T12:04:26;52.63;;;30.73;;
4650;SDS011;2338;49.602;8.722;2022-12-11T12:07:22;57.83;;;32.75;;
4650;SDS011;2338;49.602;8.722;2022-12-11T12:10:17;54.78;;;31.48;;
4650;SDS011;2338;49.602;8.722;2022-12-11T12:13:12;62.67;;;35.17;;
4650;SDS011;2338;49.602;8.722;2022-12-11T12:16:10;57.45;;;33.55;;
4650;SDS011;2338;49.602;8.722;2022-12-11T12:19:06;48.85;;;29.77;;
4650;SDS011;2338;49.602;8.722;2022-12-11T12:22:07;242.02;;;89.38;;
4650;SDS011;2338;49.602;8.722;2022-12-11T12:25:09;174.60;;;64.32;;
4650;SDS011;2338;49.602;8.722;2022-12-11T12:28:10;139.02;;;57.33;;
4650;SDS011;2338;49.602;8.722;2022-12-11T12:31:10;65.22;;;33.90;;
4650;SDS011;2338;49.602;8.722;2022-12-11T12:34:11;69.80;;;34.10;;
4650;SDS011;2338;49.602;8.722;2022-12-11T12:37:09;232.75;;;80.40;;
4650;SDS011;2338;49.602;8.722;2022-12-11T12:40:08;97.95;;;44.33;;
4650;SDS011;2338;49.602;8.722;2022-12-11T12:43:04;139.93;;;59.20;;
4650;SDS011;2338;49.602;8.722;2022-12-11T12:46:02;90.05;;;43.22;;
4650;SDS011;2338;49.602;8.722;2022-12-11T12:48:59;60.92;;;31.77;;
4650;SDS011;2338;49.602;8.722;2022-12-11T12:51:50;54.17;;;29.45;;
4650;SDS011;2338;49.602;8.722;2022-12-11T12:54:50;49.40;;;28.60;;
4650;SDS011;2338;49.602;8.722;2022-12-11T12:57:56;58.25;;;36.53;;
4650;SDS011;2338;49.602;8.722;2022-12-11T13:00:50;56.17;;;34.58;;
4650;SDS011;2338;49.602;8.722;2022-12-11T13:03:55;53.15;;;34.83;;
4650;SDS011;2338;49.602;8.722;2022-12-11T13:06:50;55.13;;;31.42;;
4650;SDS011;2338;49.602;8.722;2022-12-11T13:09:38;54.70;;;30.98;;
4650;SDS011;2338;49.602;8.722;2022-12-11T13:12:39;56.97;;;32.50;;
4650;SDS011;2338;49.602;8.722;2022-12-11T13:15:30;50.60;;;29.05;;
4650;SDS011;2338;49.602;8.722;2022-12-11T13:18:32;55.15;;;31.33;;
4650;SDS011;2338;49.602;8.722;2022-12-11T13:21:26;53.05;;;29.38;;
4650;SDS011;2338;49.602;8.722;2022-12-11T13:24:23;46.13;;;29.42;;
4650;SDS011;2338;49.602;8.722;2022-12-11T13:27:21;47.10;;;27.70;;
4650;SDS011;2338;49.602;8.722;2022-12-11T13:30:22;47.08;;;27.67;;
4650;SDS011;2338;49.602;8.722;2022-12-11T13:33:13;53.13;;;25.50;;
4650;SDS011;2338;49.602;8.722;2022-12-11T13:39:16;42.72;;;22.48;;
4650;SDS011;2338;49.602;8.722;2022-12-11T13:42:07;40.72;;;24.50;;
4650;SDS011;2338;49.602;8.722;2022-12-11T13:45:14;39.38;;;24.50;;
4650;SDS011;2338;49.602;8.722;2022-12-11T13:48:03;34.55;;;20.42;;
4650;SDS011;2338;49.602;8.722;2022-12-11T13:50:56;34.40;;;21.35;;
4650;SDS011;2338;49.602;8.722;2022-12-11T13:53:43;40.65;;;24.40;;
4650;SDS011;2338;49.602;8.722;2022-12-11T13:56:30;42.35;;;24.88;;
4650;SDS011;2338;49.602;8.722;2022-12-11T13:59:19;38.40;;;22.35;;
4650;SDS011;2338;49.602;8.722;2022-12-11T14:02:10;43.15;;;24.40;;
4650;SDS011;2338;49.602;8.722;2022-12-11T14:05:03;37.20;;;23.58;;
4650;SDS011;2338;49.602;8.722;2022-12-11T14:07:52;40.03;;;24.40;;
4650;SDS011;2338;49.602;8.722;2022-12-11T14:10:40;36.13;;;21.02;;
4650;SDS011;2338;49.602;8.722;2022-12-11T14:13:28;41.55;;;21.77;;
4650;SDS011;2338;49.602;8.722;2022-12-11T14:16:18;37.53;;;24.15;;
4650;SDS011;2338;49.602;8.722;2022-12-11T14:19:05;42.40;;;25.42;;
4650;SDS011;2338;49.602;8.722;2022-12-11T14:21:58;45.03;;;26.83;;
4650;SDS011;2338;49.602;8.722;2022-12-11T14:24:48;41.95;;;25.27;;
4650;SDS011;2338;49.602;8.722;2022-12-11T14:27:34;38.92;;;22.05;;
4650;SDS011;2338;49.602;8.722;2022-12-11T14:30:22;44.85;;;24.65;;
4650;SDS011;2338;49.602;8.722;2022-12-11T14:33:09;42.30;;;24.55;;
4650;SDS011;2338;49.602;8.722;2022-12-11T14:35:55;41.83;;;24.45;;
4650;SDS011;2338;49.602;8.722;2022-12-11T14:38:41;39.58;;;23.98;;
4650;SDS011;2338;49.602;8.722;2022-12-11T14:41:32;48.70;;;28.30;;
4650;SDS011;2338;49.602;8.722;2022-12-11T14:44:26;47.72;;;28.45;;
4650;SDS011;2338;49.602;8.722;2022-12-11T14:47:17;56.22;;;31.40;;
4650;SDS011;2338;49.602;8.722;2022-12-11T14:50:06;53.20;;;29.60;;
4650;SDS011;2338;49.602;8.722;2022-12-11T14:52:56;53.40;;;29.30;;
4650;SDS011;2338;49.602;8.722;2022-12-11T14:55:43;57.42;;;33.50;;
4650;SDS011;2338;49.602;8.722;2022-12-11T14:58:31;52.15;;;30.02;;
4650;SDS011;2338;49.602;8.722;2022-12-11T15:01:25;54.28;;;32.95;;
4650;SDS011;2338;49.602;8.722;2022-12-11T15:04:21;59.83;;;32.95;;
4650;SDS011;2338;49.602;8.722;2022-12-11T15:07:16;60.35;;;34.00;;
4650;SDS011;2338;49.602;8.722;2022-12-11T15:10:04;56.85;;;33.58;;
4650;SDS011;2338;49.602;8.722;2022-12-11T15:12:50;64.22;;;31.70;;
4650;SDS011;2338;49.602;8.722;2022-12-11T15:15:37;60.08;;;32.50;;
4650;SDS011;2338;49.602;8.722;2022-12-11T15:18:29;54.72;;;32.60;;
4650;SDS011;2338;49.602;8.722;2022-12-11T15:21:18;61.25;;;35.00;;
4650;SDS011;2338;49.602;8.722;2022-12-11T15:24:23;54.42;;;31.65;;
4650;SDS011;2338;49.602;8.722;2022-12-11T15:27:15;50.47;;;30.63;;
4650;SDS011;2338;49.602;8.722;2022-12-11T15:30:23;55.60;;;32.65;;
4650;SDS011;2338;49.602;8.722;2022-12-11T15:33:17;54.58;;;30.92;;
4650;SDS011;2338;49.602;8.722;2022-12-11T15:36:05;51.30;;;30.45;;
4650;SDS011;2338;49.602;8.722;2022-12-11T15:39:07;56.60;;;33.15;;
4650;SDS011;2338;49.602;8.722;2022-12-11T15:41:53;50.88;;;28.08;;
4650;SDS011;2338;49.602;8.722;2022-12-11T15:44:38;53.22;;;29.83;;
4650;SDS011;2338;49.602;8.722;2022-12-11T15:47:26;55.70;;;28.67;;
4650;SDS011;2338;49.602;8.722;2022-12-11T15:50:14;51.15;;;29.48;;
4650;SDS011;2338;49.602;8.722;2022-12-11T15:53:02;46.85;;;27.92;;
4650;SDS011;2338;49.602;8.722;2022-12-11T15:55:47;48.85;;;27.75;;
4650;SDS011;2338;49.602;8.722;2022-12-11T15:58:33;51.15;;;31.00;;
4650;SDS011;2338;49.602;8.722;2022-12-11T16:01:19;51.85;;;28.10;;
4650;SDS011;2338;49.602;8.722;2022-12-11T16:04:04;47.60;;;27.85;;
4650;SDS011;2338;49.602;8.722;2022-12-11T16:06:50;50.35;;;29.02;;
4650;SDS011;2338;49.602;8.722;2022-12-11T16:09:37;44.72;;;26.45;;
4650;SDS011;2338;49.602;8.722;2022-12-11T16:12:22;50.60;;;30.15;;
4650;SDS011;2338;49.602;8.722;2022-12-11T16:15:08;50.95;;;27.85;;
4650;SDS011;2338;49.602;8.722;2022-12-11T16:17:58;46.80;;;27.20;;
4650;SDS011;2338;49.602;8.722;2022-12-11T16:20:46;47.05;;;27.38;;
4650;SDS011;2338;49.602;8.722;2022-12-11T16:23:32;44.83;;;27.67;;
4650;SDS011;2338;49.602;8.722;2022-12-11T16:26:19;44.78;;;26.15;;
4650;SDS011;2338;49.602;8.722;2022-12-11T16:29:05;47.80;;;27.60;;
4650;SDS011;2338;49.602;8.722;2022-12-11T16:31:51;48.47;;;26.90;;
4650;SDS011;2338;49.602;8.722;2022-12-11T16:34:37;44.22;;;25.80;;
4650;SDS011;2338;49.602;8.722;2022-12-11T16:37:22;53.72;;;28.40;;
4650;SDS011;2338;49.602;8.722;2022-12-11T16:40:09;51.28;;;27.58;;
4650;SDS011;2338;49.602;8.722;2022-12-11T16:42:57;46.67;;;27.90;;
4650;SDS011;2338;49.602;8.722;2022-12-11T16:45:42;44.17;;;26.30;;
4650;SDS011;2338;49.602;8.722;2022-12-11T16:48:28;46.88;;;27.73;;
4650;SDS011;2338;49.602;8.722;2022-12-11T16:51:14;48.65;;;28.35;;
4650;SDS011;2338;49.602;8.722;2022-12-11T16:53:59;50.33;;;29.00;;
4650;SDS011;2338;49.602;8.722;2022-12-11T16:56:45;46.50;;;26.10;;
4650;SDS011;2338;49.602;8.722;2022-12-11T16:59:32;42.85;;;25.85;;
4650;SDS011;2338;49.602;8.722;2022-12-11T17:02:19;49.13;;;28.42;;
4650;SDS011;2338;49.602;8.722;2022-12-11T17:05:04;50.03;;;27.40;;